sensor_id;sensor_type;location;lat;lon;timestamp;pressure;altitude;pressure_sealevel;temperature;humidity
75681;BME280;64294;49.176;16.626;2023-05-21T00:01:02;99517.25;;;15.51;100.00
75681;BME280;64294;49.176;16.626;2023-05-21T00:03:30;99516.69;;;15.53;100.00
75681;BME280;64294;49.176;16.626;2023-05-21T00:05:56;99516.31;;;15.71;100.00
75681;BME280;64294;49.176;16.626;2023-05-21T00:08:22;99517.25;;;15.74;100.00
75681;BME280;64294;49.176;16.626;2023-05-21T00:10:47;99509.13;;;15.78;100.00
75681;BME280;64294;49.176;16.626;2023-05-21T00:13:13;99503.09;;;15.74;100.00
75681;BME280;64294;49.176;16.626;2023-05-21T00:15:38;99507.03;;;15.79;100.00
75681;BME280;64294;49.176;16.626;2023-05-21T00:18:04;99505.16;;;15.73;100.00
75681;BME280;64294;49.176;16.626;2023-05-21T00:20:30;99502.72;;;15.70;100.00
75681;BME280;64294;49.176;16.626;2023-05-21T00:22:58;99497.59;;;15.76;100.00
75681;BME280;64294;49.176;16.626;2023-05-21T00:25:27;99497.41;;;15.74;100.00
75681;BME280;64294;49.176;16.626;2023-05-21T00:27:53;99499.69;;;15.75;100.00
75681;BME280;64294;49.176;16.626;2023-05-21T00:30:19;99498.19;;;15.74;100.00
75681;BME280;64294;49.176;16.626;2023-05-21T00:32:44;99496.13;;;15.67;100.00
75681;BME280;64294;49.176;16.626;2023-05-21T00:35:10;99500.09;;;15.64;100.00
75681;BME280;64294;49.176;16.626;2023-05-21T00:37:36;99500.25;;;15.74;100.00
75681;BME280;64294;49.176;16.626;2023-05-21T00:40:02;99508.56;;;15.72;100.00
75681;BME280;64294;49.176;16.626;2023-05-21T00:42:33;99500.81;;;15.80;100.00
75681;BME280;64294;49.176;16.626;2023-05-21T00:45:04;99496.28;;;15.77;100.00
75681;BME280;64294;49.176;16.626;2023-05-21T00:47:30;99496.28;;;15.77;100.00
75681;BME280;64294;49.176;16.626;2023-05-21T00:49:56;99496.47;;;15.79;100.00
75681;BME280;64294;49.176;16.626;2023-05-21T00:52:22;99498.19;;;15.74;100.00
75681;BME280;64294;49.176;16.626;2023-05-21T00:54:51;99506.47;;;15.88;100.00
75681;BME280;64294;49.176;16.626;2023-05-21T00:57:18;99525.97;;;15.68;100.00
75681;BME280;64294;49.176;16.626;2023-05-21T00:59:46;99506.47;;;15.57;100.00
75681;BME280;64294;49.176;16.626;2023-05-21T01:02:12;99503.09;;;15.59;100.00
75681;BME280;64294;49.176;16.626;2023-05-21T01:04:38;99505.38;;;15.45;100.00
75681;BME280;64294;49.176;16.626;2023-05-21T01:07:04;99494.41;;;15.41;100.00
75681;BME280;64294;49.176;16.626;2023-05-21T01:09:30;99490.63;;;15.54;100.00
75681;BME280;64294;49.176;16.626;2023-05-21T01:11:56;99485.72;;;15.55;100.00
75681;BME280;64294;49.176;16.626;2023-05-21T01:14:30;99481.19;;;15.52;100.00
75681;BME280;64294;49.176;16.626;2023-05-21T01:16:57;99484.97;;;15.54;100.00
75681;BME280;64294;49.176;16.626;2023-05-21T01:19:26;99485.53;;;15.53;100.00
75681;BME280;64294;49.176;16.626;2023-05-21T01:21:56;99490.25;;;15.50;100.00
75681;BME280;64294;49.176;16.626;2023-05-21T01:24:24;99496.66;;;15.43;100.00
75681;BME280;64294;49.176;16.626;2023-05-21T01:26:50;99497.44;;;15.43;100.00
75681;BME280;64294;49.176;16.626;2023-05-21T01:29:16;99488.75;;;15.49;100.00
75681;BME280;64294;49.176;16.626;2023-05-21T01:34:47;99480.63;;;15.61;100.00
75681;BME280;64294;49.176;16.626;2023-05-21T01:40:27;99465.16;;;15.62;100.00
75681;BME280;64294;49.176;16.626;2023-05-21T01:42:54;99466.06;;;15.57;100.00
75681;BME280;64294;49.176;16.626;2023-05-21T01:45:21;99465.53;;;15.51;100.00
75681;BME280;64294;49.176;16.626;2023-05-21T01:47:50;99466.66;;;15.70;100.00
75681;BME280;64294;49.176;16.626;2023-05-21T01:50:18;99465.53;;;15.66;100.00
75681;BME280;64294;49.176;16.626;2023-05-21T01:52:51;99451.91;;;15.57;100.00
75681;BME280;64294;49.176;16.626;2023-05-21T01:55:18;99460.41;;;15.49;100.00
75681;BME280;64294;49.176;16.626;2023-05-21T01:57:52;99457.78;;;15.43;100.00
75681;BME280;64294;49.176;16.626;2023-05-21T02:00:22;99459.69;;;15.33;100.00
75681;BME280;64294;49.176;16.626;2023-05-21T02:02:48;99458.53;;;15.21;100.00
75681;BME280;64294;49.176;16.626;2023-05-21T02:05:14;99449.69;;;15.09;100.00
75681;BME280;64294;49.176;16.626;2023-05-21T02:07:44;99459.66;;;15.03;100.00
75681;BME280;64294;49.176;16.626;2023-05-21T02:10:10;99457.03;;;14.90;100.00
75681;BME280;64294;49.176;16.626;2023-05-21T02:12:39;99476.28;;;14.91;100.00
75681;BME280;64294;49.176;16.626;2023-05-21T02:15:05;99472.09;;;14.77;100.00
75681;BME280;64294;49.176;16.626;2023-05-21T02:17:31;99468.72;;;14.71;100.00
75681;BME280;64294;49.176;16.626;2023-05-21T02:20:02;99470.75;;;14.63;100.00
75681;BME280;64294;49.176;16.626;2023-05-21T02:22:41;99466.03;;;14.58;100.00
75681;BME280;64294;49.176;16.626;2023-05-21T02:25:07;99471.88;;;14.67;100.00
75681;BME280;64294;49.176;16.626;2023-05-21T02:27:34;99465.28;;;14.65;100.00
75681;BME280;64294;49.176;16.626;2023-05-21T02:30:05;99463.78;;;14.56;100.00
75681;BME280;64294;49.176;16.626;2023-05-21T02:32:33;99465.56;;;14.38;100.00
75681;BME280;64294;49.176;16.626;2023-05-21T02:35:00;99465.16;;;14.27;100.00
75681;BME280;64294;49.176;16.626;2023-05-21T02:37:26;99459.09;;;14.15;100.00
75681;BME280;64294;49.176;16.626;2023-05-21T02:39:55;99461.66;;;14.05;100.00
75681;BME280;64294;49.176;16.626;2023-05-21T02:42:21;99456.00;;;13.98;100.00
75681;BME280;64294;49.176;16.626;2023-05-21T02:44:48;99464.78;;;13.86;100.00
75681;BME280;64294;49.176;16.626;2023-05-21T02:47:13;99460.00;;;13.74;100.00
75681;BME280;64294;49.176;16.626;2023-05-21T02:49:39;99456.59;;;13.75;100.00
75681;BME280;64294;49.176;16.626;2023-05-21T02:52:04;99465.06;;;13.68;100.00
75681;BME280;64294;49.176;16.626;2023-05-21T02:54:30;99463.69;;;13.61;100.00
75681;BME280;64294;49.176;16.626;2023-05-21T02:56:55;99458.53;;;13.52;100.00
75681;BME280;64294;49.176;16.626;2023-05-21T02:59:22;99456.84;;;13.49;100.00
75681;BME280;64294;49.176;16.626;2023-05-21T03:01:47;99458.72;;;13.46;100.00
75681;BME280;64294;49.176;16.626;2023-05-21T03:04:13;99465.06;;;13.39;100.00
75681;BME280;64294;49.176;16.626;2023-05-21T03:06:39;99460.66;;;13.30;100.00
75681;BME280;64294;49.176;16.626;2023-05-21T03:09:04;99460.47;;;13.28;100.00
75681;BME280;64294;49.176;16.626;2023-05-21T03:11:30;99457.84;;;13.30;100.00
75681;BME280;64294;49.176;16.626;2023-05-21T03:13:56;99451.78;;;13.26;100.00
75681;BME280;64294;49.176;16.626;2023-05-21T03:16:21;99459.50;;;13.26;100.00
75681;BME280;64294;49.176;16.626;2023-05-21T03:18:47;99462.69;;;13.22;100.00
75681;BME280;64294;49.176;16.626;2023-05-21T03:21:12;99453.22;;;13.20;100.00
75681;BME280;64294;49.176;16.626;2023-05-21T03:23:39;99448.38;;;13.20;100.00
75681;BME280;64294;49.176;16.626;2023-05-21T03:26:06;99452.53;;;13.27;100.00
75681;BME280;64294;49.176;16.626;2023-05-21T03:28:32;99463.84;;;13.27;100.00
75681;BME280;64294;49.176;16.626;2023-05-21T03:30:57;99461.41;;;13.31;100.00
75681;BME280;64294;49.176;16.626;2023-05-21T03:33:23;99466.34;;;13.38;100.00
75681;BME280;64294;49.176;16.626;2023-05-21T03:35:48;99464.63;;;13.35;100.00
75681;BME280;64294;49.176;16.626;2023-05-21T03:38:14;99457.47;;;13.34;100.00
75681;BME280;64294;49.176;16.626;2023-05-21T03:40:40;99457.47;;;13.34;100.00
75681;BME280;64294;49.176;16.626;2023-05-21T03:43:05;99460.31;;;13.34;100.00
75681;BME280;64294;49.176;16.626;2023-05-21T03:45:31;99457.00;;;13.43;100.00
75681;BME280;64294;49.176;16.626;2023-05-21T03:47:56;99457.94;;;13.46;100.00
75681;BME280;64294;49.176;16.626;2023-05-21T03:50:22;99464.19;;;13.52;100.00
75681;BME280;64294;49.176;16.626;2023-05-21T03:52:47;99462.53;;;13.56;100.00
75681;BME280;64294;49.176;16.626;2023-05-21T03:55:12;99459.41;;;13.68;100.00
75681;BME280;64294;49.176;16.626;2023-05-21T03:57:38;99458.47;;;13.73;100.00
75681;BME280;64294;49.176;16.626;2023-05-21T04:00:04;99458.34;;;13.78;100.00
75681;BME280;64294;49.176;16.626;2023-05-21T04:02:31;99460.81;;;13.82;100.00
75681;BME280;64294;49.176;16.626;2023-05-21T04:04:56;99464.63;;;13.92;100.00
75681;BME280;64294;49.176;16.626;2023-05-21T04:07:21;99466.94;;;14.01;100.00
75681;BME280;64294;49.176;16.626;2023-05-21T04:09:47;99461.66;;;14.05;100.00
75681;BME280;64294;49.176;16.626;2023-05-21T04:12:13;99463.56;;;14.10;100.00
75681;BME280;64294;49.176;16.626;2023-05-21T04:14:39;99457.22;;;14.25;100.00
75681;BME280;64294;49.176;16.626;2023-05-21T04:17:04;99473.09;;;14.36;100.00
75681;BME280;64294;49.176;16.626;2023-05-21T04:19:31;99460.47;;;14.37;100.00
75681;BME280;64294;49.176;16.626;2023-05-21T04:21:56;99468.63;;;14.48;100.00
75681;BME280;64294;49.176;16.626;2023-05-21T04:24:25;99463.56;;;14.54;100.00
75681;BME280;64294;49.176;16.626;2023-05-21T04:26:50;99465.66;;;14.69;100.00
75681;BME280;64294;49.176;16.626;2023-05-21T04:29:16;99474.75;;;14.82;100.00
75681;BME280;64294;49.176;16.626;2023-05-21T04:31:46;99474.41;;;14.94;100.00
75681;BME280;64294;49.176;16.626;2023-05-21T04:34:12;99471.38;;;15.14;100.00
75681;BME280;64294;49.176;16.626;2023-05-21T04:36:38;99466.13;;;15.26;100.00
75681;BME280;64294;49.176;16.626;2023-05-21T04:39:03;99470.06;;;15.38;100.00
75681;BME280;64294;49.176;16.626;2023-05-21T04:41:30;99469.50;;;15.48;100.00
75681;BME280;64294;49.176;16.626;2023-05-21T04:43:56;99480.25;;;15.64;100.00
75681;BME280;64294;49.176;16.626;2023-05-21T04:46:21;99474.75;;;15.82;100.00
75681;BME280;64294;49.176;16.626;2023-05-21T04:48:53;99473.94;;;16.04;100.00
75681;BME280;64294;49.176;16.626;2023-05-21T04:51:22;99478.59;;;16.17;100.00
75681;BME280;64294;49.176;16.626;2023-05-21T04:53:50;99480.59;;;16.39;100.00
75681;BME280;64294;49.176;16.626;2023-05-21T04:56:16;99478.63;;;16.49;100.00
75681;BME280;64294;49.176;16.626;2023-05-21T04:58:43;99479.13;;;16.71;100.00
75681;BME280;64294;49.176;16.626;2023-05-21T05:01:09;99480.53;;;16.87;100.00
75681;BME280;64294;49.176;16.626;2023-05-21T05:03:34;99479.56;;;17.17;99.66
75681;BME280;64294;49.176;16.626;2023-05-21T05:06:00;99488.91;;;17.35;98.20
75681;BME280;64294;49.176;16.626;2023-05-21T05:08:28;99473.38;;;17.53;97.11
75681;BME280;64294;49.176;16.626;2023-05-21T05:10:54;99485.16;;;17.49;94.63
75681;BME280;64294;49.176;16.626;2023-05-21T05:13:19;99479.47;;;17.74;93.57
75681;BME280;64294;49.176;16.626;2023-05-21T05:15:45;99484.41;;;17.91;94.16
75681;BME280;64294;49.176;16.626;2023-05-21T05:18:11;99478.88;;;18.10;92.20
75681;BME280;64294;49.176;16.626;2023-05-21T05:20:36;99469.38;;;18.42;89.55
75681;BME280;64294;49.176;16.626;2023-05-21T05:23:02;99471.25;;;18.57;88.50
75681;BME280;64294;49.176;16.626;2023-05-21T05:25:27;99468.25;;;18.55;87.08
75681;BME280;64294;49.176;16.626;2023-05-21T05:27:53;99469.03;;;18.83;85.83
75681;BME280;64294;49.176;16.626;2023-05-21T05:30:19;99477.13;;;18.86;84.44
75681;BME280;64294;49.176;16.626;2023-05-21T05:32:44;99472.72;;;19.02;82.78
75681;BME280;64294;49.176;16.626;2023-05-21T05:35:10;99465.38;;;18.99;81.99
75681;BME280;64294;49.176;16.626;2023-05-21T05:37:36;99466.09;;;19.36;81.39
75681;BME280;64294;49.176;16.626;2023-05-21T05:40:01;99463.63;;;19.70;80.09
75681;BME280;64294;49.176;16.626;2023-05-21T05:42:28;99466.19;;;19.75;79.96
75681;BME280;64294;49.176;16.626;2023-05-21T05:44:54;99467.25;;;19.99;78.13
75681;BME280;64294;49.176;16.626;2023-05-21T05:47:20;99462.13;;;20.26;76.57
75681;BME280;64294;49.176;16.626;2023-05-21T05:49:46;99473.81;;;20.60;75.60
75681;BME280;64294;49.176;16.626;2023-05-21T05:52:11;99469.66;;;21.01;73.28
75681;BME280;64294;49.176;16.626;2023-05-21T05:54:37;99467.69;;;21.04;72.50
75681;BME280;64294;49.176;16.626;2023-05-21T05:57:02;99470.88;;;21.39;71.89
75681;BME280;64294;49.176;16.626;2023-05-21T05:59:28;99476.25;;;21.44;72.65
75681;BME280;64294;49.176;16.626;2023-05-21T06:01:53;99469.25;;;22.00;70.03
75681;BME280;64294;49.176;16.626;2023-05-21T06:04:19;99458.22;;;22.06;69.59
75681;BME280;64294;49.176;16.626;2023-05-21T06:06:44;99454.44;;;22.81;69.48
75681;BME280;64294;49.176;16.626;2023-05-21T06:09:10;99460.34;;;23.18;65.74
75681;BME280;64294;49.176;16.626;2023-05-21T06:11:36;99466.03;;;23.77;60.80
75681;BME280;64294;49.176;16.626;2023-05-21T06:14:01;99459.78;;;24.94;56.15
75681;BME280;64294;49.176;16.626;2023-05-21T06:16:27;99454.88;;;26.65;50.53
75681;BME280;64294;49.176;16.626;2023-05-21T06:18:55;99447.88;;;27.98;45.98
75681;BME280;64294;49.176;16.626;2023-05-21T06:21:21;99448.28;;;28.62;44.37
75681;BME280;64294;49.176;16.626;2023-05-21T06:23:46;99455.41;;;29.54;41.54
75681;BME280;64294;49.176;16.626;2023-05-21T06:26:12;99445.19;;;30.36;39.82
75681;BME280;64294;49.176;16.626;2023-05-21T06:28:37;99446.88;;;31.15;38.42
75681;BME280;64294;49.176;16.626;2023-05-21T06:31:03;99443.81;;;31.61;36.51
75681;BME280;64294;49.176;16.626;2023-05-21T06:33:28;99439.84;;;31.74;36.00
75681;BME280;64294;49.176;16.626;2023-05-21T06:35:54;99438.56;;;32.09;35.57
75681;BME280;64294;49.176;16.626;2023-05-21T06:38:20;99444.41;;;32.39;33.73
75681;BME280;64294;49.176;16.626;2023-05-21T06:40:45;99432.47;;;32.57;33.57
75681;BME280;64294;49.176;16.626;2023-05-21T06:43:12;99441.88;;;33.58;32.74
75681;BME280;64294;49.176;16.626;2023-05-21T06:45:38;99430.88;;;32.22;33.16
75681;BME280;64294;49.176;16.626;2023-05-21T06:48:03;99436.53;;;32.44;32.92
75681;BME280;64294;49.176;16.626;2023-05-21T06:50:29;99434.72;;;31.73;35.03
75681;BME280;64294;49.176;16.626;2023-05-21T06:52:55;99437.16;;;32.72;32.34
75681;BME280;64294;49.176;16.626;2023-05-21T06:55:20;99438.47;;;32.05;33.45
75681;BME280;64294;49.176;16.626;2023-05-21T06:57:46;99434.25;;;32.40;32.26
75681;BME280;64294;49.176;16.626;2023-05-21T07:00:11;99432.94;;;32.77;32.31
75681;BME280;64294;49.176;16.626;2023-05-21T07:02:38;99435.53;;;33.31;31.21
75681;BME280;64294;49.176;16.626;2023-05-21T07:05:04;99443.53;;;31.77;33.01
75681;BME280;64294;49.176;16.626;2023-05-21T07:07:29;99446.66;;;33.79;30.81
75681;BME280;64294;49.176;16.626;2023-05-21T07:09:54;99438.78;;;33.48;30.93
75681;BME280;64294;49.176;16.626;2023-05-21T07:12:20;99438.56;;;34.16;29.30
75681;BME280;64294;49.176;16.626;2023-05-21T07:14:45;99442.13;;;31.52;32.53
75681;BME280;64294;49.176;16.626;2023-05-21T07:17:11;99442.81;;;32.64;31.01
75681;BME280;64294;49.176;16.626;2023-05-21T07:19:36;99433.47;;;32.38;31.11
75681;BME280;64294;49.176;16.626;2023-05-21T07:22:02;99434.78;;;32.33;30.97
75681;BME280;64294;49.176;16.626;2023-05-21T07:24:28;99440.38;;;33.55;30.76
75681;BME280;64294;49.176;16.626;2023-05-21T07:26:53;99440.84;;;33.07;29.91
75681;BME280;64294;49.176;16.626;2023-05-21T07:29:19;99435.50;;;34.06;29.89
75681;BME280;64294;49.176;16.626;2023-05-21T07:31:44;99437.63;;;32.29;29.92
75681;BME280;64294;49.176;16.626;2023-05-21T07:34:10;99430.94;;;34.89;28.43
75681;BME280;64294;49.176;16.626;2023-05-21T07:36:35;99428.09;;;33.24;30.17
75681;BME280;64294;49.176;16.626;2023-05-21T07:39:01;99432.16;;;34.74;29.63
75681;BME280;64294;49.176;16.626;2023-05-21T07:41:27;99438.75;;;34.28;29.47
75681;BME280;64294;49.176;16.626;2023-05-21T07:43:53;99428.53;;;34.27;29.65
75681;BME280;64294;49.176;16.626;2023-05-21T07:46:18;99425.16;;;34.93;27.75
75681;BME280;64294;49.176;16.626;2023-05-21T07:48:44;99431.81;;;34.03;30.21
75681;BME280;64294;49.176;16.626;2023-05-21T07:51:11;99424.75;;;34.65;29.21
75681;BME280;64294;49.176;16.626;2023-05-21T07:53:36;99427.06;;;35.31;26.71
75681;BME280;64294;49.176;16.626;2023-05-21T07:56:02;99428.88;;;35.58;27.85
75681;BME280;64294;49.176;16.626;2023-05-21T07:58:28;99428.84;;;35.56;26.16
75681;BME280;64294;49.176;16.626;2023-05-21T08:00:55;99429.22;;;36.94;26.21
75681;BME280;64294;49.176;16.626;2023-05-21T08:03:21;99424.56;;;36.50;26.44
75681;BME280;64294;49.176;16.626;2023-05-21T08:05:47;99432.22;;;36.01;27.85
75681;BME280;64294;49.176;16.626;2023-05-21T08:08:16;99420.56;;;35.34;27.78
75681;BME280;64294;49.176;16.626;2023-05-21T08:10:43;99415.34;;;36.98;25.42
75681;BME280;64294;49.176;16.626;2023-05-21T08:13:10;99419.00;;;34.71;27.21
75681;BME280;64294;49.176;16.626;2023-05-21T08:15:35;99420.34;;;36.78;25.69
75681;BME280;64294;49.176;16.626;2023-05-21T08:18:01;99409.00;;;38.10;24.80
75681;BME280;64294;49.176;16.626;2023-05-21T08:20:26;99417.56;;;37.08;24.68
75681;BME280;64294;49.176;16.626;2023-05-21T08:22:53;99410.47;;;38.41;24.87
75681;BME280;64294;49.176;16.626;2023-05-21T08:25:19;99415.53;;;36.16;24.14
75681;BME280;64294;49.176;16.626;2023-05-21T08:27:44;99406.81;;;37.86;23.82
75681;BME280;64294;49.176;16.626;2023-05-21T08:30:10;99400.91;;;38.57;24.05
75681;BME280;64294;49.176;16.626;2023-05-21T08:32:36;99410.78;;;39.58;23.12
75681;BME280;64294;49.176;16.626;2023-05-21T08:35:01;99411.19;;;38.48;22.97
75681;BME280;64294;49.176;16.626;2023-05-21T08:37:28;99414.44;;;40.54;20.69
75681;BME280;64294;49.176;16.626;2023-05-21T08:39:53;99412.19;;;40.59;20.25
75681;BME280;64294;49.176;16.626;2023-05-21T08:44:51;99410.72;;;39.70;22.23
75681;BME280;64294;49.176;16.626;2023-05-21T08:47:20;99419.28;;;38.29;22.77
75681;BME280;64294;49.176;16.626;2023-05-21T08:49:49;99408.25;;;38.54;22.50
75681;BME280;64294;49.176;16.626;2023-05-21T08:52:15;99408.59;;;35.78;26.08
75681;BME280;64294;49.176;16.626;2023-05-21T08:54:41;99405.13;;;37.06;24.94
75681;BME280;64294;49.176;16.626;2023-05-21T08:57:08;99397.34;;;36.27;25.46
75681;BME280;64294;49.176;16.626;2023-05-21T08:59:34;99400.13;;;38.79;23.25
75681;BME280;64294;49.176;16.626;2023-05-21T09:02:03;99402.34;;;38.58;24.24
75681;BME280;64294;49.176;16.626;2023-05-21T09:04:29;99405.34;;;38.30;24.37
75681;BME280;64294;49.176;16.626;2023-05-21T09:06:55;99397.94;;;37.39;24.30
75681;BME280;64294;49.176;16.626;2023-05-21T09:09:31;99409.69;;;35.41;25.75
75681;BME280;64294;49.176;16.626;2023-05-21T09:11:57;99404.63;;;37.97;23.96
75681;BME280;64294;49.176;16.626;2023-05-21T09:14:23;99400.22;;;38.26;23.97
75681;BME280;64294;49.176;16.626;2023-05-21T09:16:50;99407.50;;;38.58;23.06
75681;BME280;64294;49.176;16.626;2023-05-21T09:19:15;99397.84;;;38.98;23.26
75681;BME280;64294;49.176;16.626;2023-05-21T09:21:41;99402.31;;;37.38;23.85
75681;BME280;64294;49.176;16.626;2023-05-21T09:24:08;99400.84;;;37.37;24.50
75681;BME280;64294;49.176;16.626;2023-05-21T09:26:33;99396.53;;;37.85;25.07
75681;BME280;64294;49.176;16.626;2023-05-21T09:28:59;99393.75;;;39.75;23.41
75681;BME280;64294;49.176;16.626;2023-05-21T09:31:25;99397.94;;;37.49;24.41
75681;BME280;64294;49.176;16.626;2023-05-21T09:33:54;99393.25;;;39.35;22.52
75681;BME280;64294;49.176;16.626;2023-05-21T09:36:20;99400.59;;;39.43;23.61
75681;BME280;64294;49.176;16.626;2023-05-21T09:38:50;99392.09;;;38.63;22.70
75681;BME280;64294;49.176;16.626;2023-05-21T09:41:16;99396.94;;;40.32;21.54
75681;BME280;64294;49.176;16.626;2023-05-21T09:43:42;99390.84;;;39.73;22.31
75681;BME280;64294;49.176;16.626;2023-05-21T09:46:10;99389.16;;;38.63;23.16
75681;BME280;64294;49.176;16.626;2023-05-21T09:48:38;99403.25;;;35.53;25.98
75681;BME280;64294;49.176;16.626;2023-05-21T09:51:15;99398.91;;;34.95;27.38
75681;BME280;64294;49.176;16.626;2023-05-21T09:53:48;99389.44;;;34.44;28.13
75681;BME280;64294;49.176;16.626;2023-05-21T09:56:17;99395.59;;;37.03;25.61
75681;BME280;64294;49.176;16.626;2023-05-21T09:58:43;99392.81;;;37.52;24.90
75681;BME280;64294;49.176;16.626;2023-05-21T10:01:09;99390.50;;;37.14;24.93
75681;BME280;64294;49.176;16.626;2023-05-21T10:03:38;99386.22;;;37.41;26.53
75681;BME280;64294;49.176;16.626;2023-05-21T10:06:06;99378.91;;;37.61;25.28
75681;BME280;64294;49.176;16.626;2023-05-21T10:08:35;99377.97;;;39.13;22.81
75681;BME280;64294;49.176;16.626;2023-05-21T10:11:04;99373.66;;;38.87;23.53
75681;BME280;64294;49.176;16.626;2023-05-21T10:13:30;99381.72;;;35.94;26.52
75681;BME280;64294;49.176;16.626;2023-05-21T10:16:00;99381.13;;;36.10;28.48
75681;BME280;64294;49.176;16.626;2023-05-21T10:18:27;99380.03;;;36.66;24.75
75681;BME280;64294;49.176;16.626;2023-05-21T10:20:54;99384.38;;;35.68;24.87
75681;BME280;64294;49.176;16.626;2023-05-21T10:23:22;99369.81;;;36.73;25.47
75681;BME280;64294;49.176;16.626;2023-05-21T10:25:48;99373.72;;;34.19;28.96
75681;BME280;64294;49.176;16.626;2023-05-21T10:28:16;99371.44;;;35.89;26.54
75681;BME280;64294;49.176;16.626;2023-05-21T10:30:44;99369.09;;;34.50;28.37
75681;BME280;64294;49.176;16.626;2023-05-21T10:33:12;99369.84;;;35.07;28.34
75681;BME280;64294;49.176;16.626;2023-05-21T10:35:40;99371.84;;;33.52;29.42
75681;BME280;64294;49.176;16.626;2023-05-21T10:38:08;99368.91;;;32.77;30.72
75681;BME280;64294;49.176;16.626;2023-05-21T10:40:34;99359.69;;;34.06;29.82
75681;BME280;64294;49.176;16.626;2023-05-21T10:56:41;99349.75;;;34.25;24.96
75681;BME280;64294;49.176;16.626;2023-05-21T11:01:49;99354.44;;;34.44;24.39
75681;BME280;64294;49.176;16.626;2023-05-21T11:04:36;99348.34;;;35.45;23.61
75681;BME280;64294;49.176;16.626;2023-05-21T11:07:04;99340.75;;;37.36;21.92
75681;BME280;64294;49.176;16.626;2023-05-21T11:09:30;99347.34;;;34.59;24.87
75681;BME280;64294;49.176;16.626;2023-05-21T11:11:57;99342.16;;;34.04;25.81
75681;BME280;64294;49.176;16.626;2023-05-21T11:14:45;99340.78;;;34.61;24.41
75681;BME280;64294;49.176;16.626;2023-05-21T11:17:39;99343.38;;;36.59;23.07
75681;BME280;64294;49.176;16.626;2023-05-21T11:20:11;99344.06;;;35.52;23.62
75681;BME280;64294;49.176;16.626;2023-05-21T11:22:40;99334.31;;;36.08;25.50
75681;BME280;64294;49.176;16.626;2023-05-21T11:25:06;99334.34;;;35.33;24.21
75681;BME280;64294;49.176;16.626;2023-05-21T11:27:33;99332.53;;;34.43;26.74
75681;BME280;64294;49.176;16.626;2023-05-21T11:29:59;99329.47;;;32.06;26.31
75681;BME280;64294;49.176;16.626;2023-05-21T11:32:27;99330.38;;;30.75;29.06
75681;BME280;64294;49.176;16.626;2023-05-21T11:34:58;99334.69;;;30.74;30.30
75681;BME280;64294;49.176;16.626;2023-05-21T11:37:26;99332.69;;;33.23;27.52
75681;BME280;64294;49.176;16.626;2023-05-21T11:39:53;99324.75;;;32.21;27.95
75681;BME280;64294;49.176;16.626;2023-05-21T11:42:30;99330.91;;;34.34;27.33
75681;BME280;64294;49.176;16.626;2023-05-21T11:44:57;99326.56;;;34.35;25.28
75681;BME280;64294;49.176;16.626;2023-05-21T11:47:23;99325.94;;;33.92;23.92
75681;BME280;64294;49.176;16.626;2023-05-21T11:49:50;99325.22;;;33.50;25.44
75681;BME280;64294;49.176;16.626;2023-05-21T11:52:16;99319.13;;;33.35;24.55
75681;BME280;64294;49.176;16.626;2023-05-21T11:54:49;99328.66;;;33.82;24.84
75681;BME280;64294;49.176;16.626;2023-05-21T11:57:16;99310.84;;;34.06;25.58
75681;BME280;64294;49.176;16.626;2023-05-21T11:59:47;99315.78;;;35.04;23.09
75681;BME280;64294;49.176;16.626;2023-05-21T12:02:14;99312.25;;;33.59;25.17
75681;BME280;64294;49.176;16.626;2023-05-21T12:04:41;99306.72;;;33.77;24.62
75681;BME280;64294;49.176;16.626;2023-05-21T12:07:08;99314.38;;;33.56;25.01
75681;BME280;64294;49.176;16.626;2023-05-21T12:12:09;99311.81;;;33.34;25.56
75681;BME280;64294;49.176;16.626;2023-05-21T12:14:35;99303.16;;;32.64;26.42
75681;BME280;64294;49.176;16.626;2023-05-21T12:17:04;99310.56;;;31.75;27.39
75681;BME280;64294;49.176;16.626;2023-05-21T12:19:35;99302.47;;;32.68;27.05
75681;BME280;64294;49.176;16.626;2023-05-21T12:22:01;99293.94;;;33.98;28.49
75681;BME280;64294;49.176;16.626;2023-05-21T12:24:27;99295.41;;;34.50;25.03
75681;BME280;64294;49.176;16.626;2023-05-21T12:26:52;99294.69;;;34.51;24.54
75681;BME280;64294;49.176;16.626;2023-05-21T12:29:19;99297.84;;;34.17;28.10
75681;BME280;64294;49.176;16.626;2023-05-21T12:31:48;99290.66;;;34.79;25.44
75681;BME280;64294;49.176;16.626;2023-05-21T12:34:14;99290.84;;;34.95;26.27
75681;BME280;64294;49.176;16.626;2023-05-21T12:36:43;99296.13;;;35.11;23.77
75681;BME280;64294;49.176;16.626;2023-05-21T12:39:13;99286.53;;;33.89;25.92
75681;BME280;64294;49.176;16.626;2023-05-21T12:41:39;99285.38;;;33.64;25.89
75681;BME280;64294;49.176;16.626;2023-05-21T12:44:05;99290.03;;;34.32;24.93
75681;BME280;64294;49.176;16.626;2023-05-21T12:46:33;99282.13;;;34.39;27.66
75681;BME280;64294;49.176;16.626;2023-05-21T12:48:58;99279.13;;;34.32;25.04
75681;BME280;64294;49.176;16.626;2023-05-21T12:51:23;99277.41;;;33.67;25.04
75681;BME280;64294;49.176;16.626;2023-05-21T12:53:50;99266.81;;;33.43;26.08
75681;BME280;64294;49.176;16.626;2023-05-21T12:56:15;99272.59;;;33.39;27.74
75681;BME280;64294;49.176;16.626;2023-05-21T12:58:41;99268.25;;;34.37;27.42
75681;BME280;64294;49.176;16.626;2023-05-21T13:01:07;99260.56;;;34.64;26.32
75681;BME280;64294;49.176;16.626;2023-05-21T13:03:37;99253.81;;;34.47;26.18
75681;BME280;64294;49.176;16.626;2023-05-21T13:06:06;99257.75;;;34.18;25.70
75681;BME280;64294;49.176;16.626;2023-05-21T13:08:33;99254.94;;;32.91;26.87
75681;BME280;64294;49.176;16.626;2023-05-21T13:11:02;99252.50;;;32.09;27.71